Time;durP1;ratioP1;P1;durP2;ratioP2;P2;SDS_P1;SDS_P2;PMS_P1;PMS_P2;Temp;Humidity;BMP_temperature;BMP_pressure;BME280_temperature;BME280_humidity;BME280_pressure;Samples;Min_cycle;Max_cycle;Signal;HPM_P1;HPM_P2
2023/01/08 00:00:16;;;;;;;30.90;13.10;;;;;;;3.15;100.00;99747.71;102444;1299;60182;-64
2023/01/08 00:03:25;;;;;;;30.50;13.20;;;;;;;3.15;100.00;99747.20;102423;1291;75431;-65
2023/01/08 00:06:18;;;;;;;33.40;14.50;;;;;;;3.16;100.00;99736.46;102283;1287;68588;-63
2023/01/08 00:09:06;;;;;;;30.30;13.70;;;;;;;3.16;100.00;99732.61;102337;1291;73713;-65
2023/01/08 00:11:55;;;;;;;33.30;13.80;;;;;;;3.17;100.00;99723.07;102343;1297;60626;-63
2023/01/08 00:14:44;;;;;;;32.80;15.10;;;;;;;3.19;100.00;99729.82;102234;1298;60358;-64
2023/01/08 00:17:32;;;;;;;34.20;15.30;;;;;;;3.21;100.00;99728.65;102433;1298;73982;-63
2023/01/08 00:20:21;;;;;;;35.10;15.20;;;;;;;3.22;100.00;99727.38;102405;1296;68909;-63
2023/01/08 00:23:15;;;;;;;35.60;14.60;;;;;;;3.25;100.00;99727.41;102408;1291;73735;-63
2023/01/08 00:26:06;;;;;;;29.40;12.40;;;;;;;3.26;100.00;99730.00;102337;1293;59765;-65
2023/01/08 00:28:54;;;;;;;36.90;15.70;;;;;;;3.26;100.00;99728.75;102380;1292;61485;-64
2023/01/08 00:31:44;;;;;;;36.80;16.40;;;;;;;3.28;100.00;99730.58;102469;1298;73089;-63
2023/01/08 00:34:32;;;;;;;38.00;17.40;;;;;;;3.28;100.00;99723.20;102417;1291;66997;-63
2023/01/08 00:37:21;;;;;;;35.00;15.80;;;;;;;3.29;100.00;99723.66;102321;1291;72627;-63
2023/01/08 00:40:10;;;;;;;33.70;13.40;;;;;;;3.30;100.00;99725.01;102386;1299;59693;-63
2023/01/08 00:42:58;;;;;;;33.10;14.10;;;;;;;3.30;100.00;99720.61;102346;1298;61315;-65
2023/01/08 00:45:46;;;;;;;33.80;15.00;;;;;;;3.31;100.00;99724.11;102359;1298;74512;-63
2023/01/08 00:48:37;;;;;;;36.00;15.40;;;;;;;3.28;100.00;99717.75;102187;1295;68942;-63
2023/01/08 00:51:26;;;;;;;34.90;15.30;;;;;;;3.28;100.00;99718.48;102377;1291;73776;-64
2023/01/08 00:54:14;;;;;;;37.40;15.30;;;;;;;3.28;100.00;99712.88;102467;1291;60615;-64
2023/01/08 00:57:03;;;;;;;39.30;16.60;;;;;;;3.27;100.00;99713.10;102155;1298;59673;-65
2023/01/08 00:59:51;;;;;;;39.00;17.40;;;;;;;3.26;100.00;99719.27;102242;1281;73025;-65
2023/01/08 01:02:44;;;;;;;38.30;16.30;;;;;;;3.27;100.00;99715.73;102378;1298;68902;-64
2023/01/08 01:05:33;;;;;;;38.10;15.70;;;;;;;3.28;100.00;99717.27;102334;1292;71584;-66
2023/01/08 01:08:23;;;;;;;38.90;16.30;;;;;;;3.29;100.00;99717.37;102235;1284;59698;-63
2023/01/08 01:11:25;;;;;;;42.30;18.40;;;;;;;3.29;100.00;99712.10;102227;1298;60334;-66
2023/01/08 01:14:13;;;;;;;37.00;16.80;;;;;;;3.30;100.00;99718.55;102373;1297;72766;-63
2023/01/08 01:17:01;;;;;;;38.30;16.90;;;;;;;3.31;100.00;99710.78;102403;1291;67604;-65
2023/01/08 01:19:52;;;;;;;41.30;17.40;;;;;;;3.33;100.00;99703.48;102318;1298;73571;-65
2023/01/08 01:22:41;;;;;;;36.90;16.00;;;;;;;3.34;100.00;99701.47;102342;1298;60558;-64
2023/01/08 01:25:29;;;;;;;35.40;14.70;;;;;;;3.38;100.00;99693.17;102348;1291;60033;-64
2023/01/08 01:28:17;;;;;;;38.40;18.00;;;;;;;3.41;100.00;99689.20;102143;1292;74063;-65
2023/01/08 01:31:06;;;;;;;40.90;18.90;;;;;;;3.44;100.00;99679.39;102366;1298;68130;-65
2023/01/08 01:33:55;;;;;;;46.40;19.80;;;;;;;3.48;100.00;99676.54;102433;1291;73674;-65
2023/01/08 01:36:45;;;;;;;39.70;17.70;;;;;;;3.53;100.00;99669.80;102413;1299;59768;-65
2023/01/08 01:39:33;;;;;;;40.70;18.20;;;;;;;3.53;100.00;99664.15;102354;1298;60290;-66
2023/01/08 01:42:40;;;;;;;42.70;18.70;;;;;;;3.54;100.00;99658.83;102332;1298;74080;-66
2023/01/08 01:45:30;;;;;;;42.20;18.60;;;;;;;3.55;100.00;99657.36;102421;1291;67791;-67
2023/01/08 01:48:18;;;;;;;41.70;19.10;;;;;;;3.58;100.00;99658.61;102296;1297;73617;-66
2023/01/08 01:51:06;;;;;;;39.00;17.50;;;;;;;3.59;100.00;99653.33;102340;1299;59647;-65
2023/01/08 01:53:55;;;;;;;45.40;20.80;;;;;;;3.58;100.00;99651.75;101655;1291;1003780;-65
2023/01/08 01:56:45;;;;;;;43.70;19.00;;;;;;;3.59;100.00;99647.35;102386;1298;73963;-65
2023/01/08 01:59:33;;;;;;;41.30;18.80;;;;;;;3.60;100.00;99642.92;102393;1297;67848;-65
2023/01/08 02:02:21;;;;;;;41.50;19.80;;;;;;;3.60;100.00;99646.25;102372;1298;73096;-65
2023/01/08 02:05:11;;;;;;;49.20;21.20;;;;;;;3.60;100.00;99647.47;102237;1298;59642;-65
2023/01/08 02:08:11;;;;;;;45.40;19.30;;;;;;;3.61;100.00;99642.70;102359;1299;60135;-65
2023/01/08 02:11:13;;;;;;;40.40;17.40;;;;;;;3.62;100.00;99641.96;102408;1292;71754;-65
2023/01/08 02:14:15;;;;;;;41.80;18.40;;;;;;;3.59;100.00;99652.27;102264;1291;67814;-64
2023/01/08 02:17:09;;;;;;;45.40;20.00;;;;;;;3.58;100.00;99648.77;102381;1298;74231;-65
2023/01/08 02:20:30;;;;;;;39.40;16.90;;;;;;;3.57;100.00;99647.61;102448;1298;59648;-65
2023/01/08 02:23:48;;;;;;;42.10;18.00;;;;;;;3.58;100.00;99639.16;102429;1298;61159;-64
2023/01/08 02:26:37;;;;;;;37.90;16.50;;;;;;;3.57;100.00;99639.02;102362;1298;72943;-63
2023/01/08 02:29:28;;;;;;;44.00;18.60;;;;;;;3.57;100.00;99637.28;101873;1284;67323;-65
2023/01/08 02:32:16;;;;;;;42.70;18.40;;;;;;;3.55;100.00;99634.20;101841;1301;217953;-64
2023/01/08 02:35:07;;;;;;;42.40;18.60;;;;;;;3.52;100.00;99627.52;102000;1301;59711;-65
2023/01/08 02:37:55;;;;;;;48.60;20.40;;;;;;;3.53;100.00;99617.83;102011;1301;60360;-64
2023/01/08 02:41:14;;;;;;;45.10;20.20;;;;;;;3.56;100.00;99607.00;102663;1291;601192;-64
2023/01/08 02:44:04;;;;;;;39.80;17.70;;;;;;;3.54;100.00;99608.30;104279;1269;1002302;-65
2023/01/08 02:46:54;;;;;;;48.50;21.10;;;;;;;3.54;100.00;99606.54;105001;1266;61214;-66
2023/01/08 02:49:46;;;;;;;44.80;20.30;;;;;;;3.54;100.00;99602.13;105016;1267;69745;-66
2023/01/08 02:52:41;;;;;;;43.80;19.50;;;;;;;3.55;100.00;99601.05;104987;1265;67589;-65
2023/01/08 02:55:33;;;;;;;44.40;19.50;;;;;;;3.57;100.00;99600.23;105702;1256;410475;-65
2023/01/08 02:58:23;;;;;;;44.80;20.70;;;;;;;3.59;100.00;99610.86;105845;1251;59421;-65
2023/01/08 03:01:15;;;;;;;45.60;20.60;;;;;;;3.60;100.00;99611.33;105711;1251;60800;-66
2023/01/08 03:04:18;;;;;;;44.40;19.90;;;;;;;3.61;100.00;99605.67;105913;1254;71294;-69
2023/01/08 03:07:06;;;;;;;42.10;19.80;;;;;;;3.61;100.00;99603.56;105802;1258;68448;-65
2023/01/08 03:09:55;;;;;;;40.30;17.60;;;;;;;3.61;100.00;99602.83;105904;1251;73198;-64
2023/01/08 03:13:03;;;;;;;40.70;17.90;;;;;;;3.61;100.00;99594.09;105790;1256;59618;-65
2023/01/08 03:15:59;;;;;;;43.80;19.90;;;;;;;3.61;100.00;99596.91;105697;1252;60967;-65
2023/01/08 03:18:53;;;;;;;46.40;21.00;;;;;;;3.61;100.00;99591.95;105990;1257;70668;-65
2023/01/08 03:21:43;;;;;;;41.90;19.20;;;;;;;3.63;100.00;99596.43;105652;1260;67700;-64
2023/01/08 03:24:37;;;;;;;44.10;20.00;;;;;;;3.63;100.00;99592.21;105818;1256;73600;-66
2023/01/08 03:27:31;;;;;;;45.30;21.40;;;;;;;3.65;100.00;99592.81;105855;1257;59327;-66
2023/01/08 03:30:20;;;;;;;43.60;18.80;;;;;;;3.64;100.00;99587.05;105942;1251;61074;-65
2023/01/08 03:33:12;;;;;;;47.30;19.80;;;;;;;3.63;100.00;99593.61;105712;1251;70389;-65
2023/01/08 03:36:04;;;;;;;44.10;18.90;;;;;;;3.62;100.00;99585.96;105753;1257;68219;-66
2023/01/08 03:39:24;;;;;;;40.10;18.30;;;;;;;3.63;100.00;99593.81;105791;1257;73489;-67
2023/01/08 03:42:18;;;;;;;42.40;19.00;;;;;;;3.62;100.00;99587.73;105868;1257;59321;-65
2023/01/08 03:45:07;;;;;;;44.20;19.80;;;;;;;3.62;100.00;99588.58;105918;1254;60915;-64
2023/01/08 03:47:58;;;;;;;43.70;19.80;;;;;;;3.63;100.00;99585.02;105838;1252;72004;-66
2023/01/08 03:50:48;;;;;;;40.50;19.80;;;;;;;3.63;100.00;99584.67;105759;1257;67011;-65
2023/01/08 03:53:36;;;;;;;42.30;18.80;;;;;;;3.62;100.00;99591.01;105947;1255;71732;-65
2023/01/08 03:56:25;;;;;;;42.00;20.20;;;;;;;3.63;100.00;99595.91;105800;1257;59239;-64
2023/01/08 03:59:14;;;;;;;41.50;18.30;;;;;;;3.63;100.00;99597.14;105872;1253;59961;-65
2023/01/08 04:02:03;;;;;;;42.30;18.10;;;;;;;3.63;100.00;99588.35;105521;1254;70659;-65
2023/01/08 04:04:51;;;;;;;46.30;19.60;;;;;;;3.63;100.00;99591.55;105933;1257;69458;-64
2023/01/08 04:07:40;;;;;;;42.30;19.60;;;;;;;3.61;100.00;99592.52;105976;1257;73056;-64
2023/01/08 04:10:28;;;;;;;43.30;19.60;;;;;;;3.61;100.00;99584.25;105920;1258;60202;-65
2023/01/08 04:13:16;;;;;;;41.30;19.40;;;;;;;3.61;100.00;99577.95;105736;1260;60644;-67
2023/01/08 04:16:06;;;;;;;47.40;20.20;;;;;;;3.60;100.00;99576.42;105622;1254;70559;-65
2023/01/08 04:18:55;;;;;;;42.80;18.80;;;;;;;3.61;100.00;99576.72;105810;1256;67173;-67
2023/01/08 04:21:43;;;;;;;43.70;18.70;;;;;;;3.61;100.00;99572.85;105784;1253;73618;-65
2023/01/08 04:24:32;;;;;;;46.20;19.10;;;;;;;3.62;100.00;99574.71;105634;1253;59346;-65
2023/01/08 04:27:24;;;;;;;43.00;19.30;;;;;;;3.62;100.00;99573.48;105708;1257;59257;-66
2023/01/08 04:30:13;;;;;;;45.00;19.60;;;;;;;3.64;100.00;99569.35;105843;1254;72083;-66
2023/01/08 04:33:01;;;;;;;43.20;17.70;;;;;;;3.65;100.00;99567.91;105786;1253;68264;-65
2023/01/08 04:35:49;;;;;;;44.70;20.20;;;;;;;3.65;100.00;99558.41;105791;1255;71100;-67
2023/01/08 04:38:38;;;;;;;40.70;18.50;;;;;;;3.65;100.00;99553.34;105840;1257;59345;-66
2023/01/08 04:41:26;;;;;;;44.50;19.60;;;;;;;3.65;100.00;99548.25;105909;1257;59442;-66
2023/01/08 04:44:15;;;;;;;44.50;17.40;;;;;;;3.65;100.00;99548.94;105530;1257;72109;-67
2023/01/08 04:47:04;;;;;;;44.40;18.90;;;;;;;3.64;100.00;99543.02;105791;1253;66924;-66
2023/01/08 04:49:52;;;;;;;43.20;19.30;;;;;;;3.66;100.00;99530.80;105853;1255;72013;-65
2023/01/08 04:52:41;;;;;;;42.70;18.60;;;;;;;3.66;100.00;99535.70;105761;1259;60450;-66
2023/01/08 04:55:29;;;;;;;46.50;19.10;;;;;;;3.66;100.00;99535.03;105873;1252;60955;-66
2023/01/08 04:58:18;;;;;;;42.40;18.20;;;;;;;3.67;100.00;99535.48;105838;1252;70642;-67
2023/01/08 05:01:20;;;;;;;46.10;18.40;;;;;;;3.67;100.00;99536.86;105411;1260;68379;-65
2023/01/08 05:04:10;;;;;;;45.30;17.90;;;;;;;3.68;100.00;99530.68;105958;1254;73198;-64
2023/01/08 05:06:58;;;;;;;45.30;19.70;;;;;;;3.68;100.00;99517.36;103810;1256;1003729;-65
2023/01/08 05:09:46;;;;;;;43.70;18.00;;;;;;;3.68;100.00;99508.05;105840;1256;60694;-65
2023/01/08 05:12:35;;;;;;;44.30;19.10;;;;;;;3.67;100.00;99491.98;105926;1252;72573;-65
2023/01/08 05:15:24;;;;;;;39.80;17.00;;;;;;;3.66;100.00;99478.19;105865;1252;68493;-65
2023/01/08 05:18:14;;;;;;;44.10;18.90;;;;;;;3.65;100.00;99477.04;105883;1256;71700;-64
2023/01/08 05:21:04;;;;;;;44.40;18.50;;;;;;;3.65;100.00;99474.55;105621;1254;59263;-64
2023/01/08 05:23:52;;;;;;;39.80;17.10;;;;;;;3.65;100.00;99466.13;105699;1252;59988;-64
2023/01/08 05:26:40;;;;;;;44.10;17.20;;;;;;;3.66;100.00;99470.45;106142;1252;72261;-67
2023/01/08 05:29:28;;;;;;;46.20;18.80;;;;;;;3.65;100.00;99475.24;105907;1256;68217;-67
2023/01/08 05:32:18;;;;;;;43.30;18.20;;;;;;;3.65;100.00;99466.11;105793;1253;72865;-66
2023/01/08 05:35:07;;;;;;;40.80;17.80;;;;;;;3.65;100.00;99466.48;105714;1256;59840;-67
2023/01/08 05:37:58;;;;;;;43.90;19.00;;;;;;;3.64;100.00;99460.40;106110;1252;61887;-67
2023/01/08 05:40:46;;;;;;;46.30;19.60;;;;;;;3.61;100.00;99453.91;106086;1255;71989;-67
2023/01/08 05:43:36;;;;;;;40.30;16.30;;;;;;;3.58;100.00;99447.02;105858;1253;67009;-65
2023/01/08 05:46:24;;;;;;;46.50;19.50;;;;;;;3.56;100.00;99440.34;105873;1255;71837;-67
2023/01/08 05:49:12;;;;;;;43.90;17.40;;;;;;;3.56;100.00;99437.35;105884;1257;60227;-66
2023/01/08 05:52:03;;;;;;;47.80;19.30;;;;;;;3.56;100.00;99432.81;102203;1255;1016379;-67
2023/01/08 05:54:52;;;;;;;44.60;19.70;;;;;;;3.58;100.00;99435.64;105632;1252;71429;-70
2023/01/08 05:57:40;;;;;;;47.40;20.30;;;;;;;3.58;100.00;99428.26;105622;1254;67092;-66
2023/01/08 06:00:28;;;;;;;44.50;19.20;;;;;;;3.60;100.00;99423.07;105830;1256;72935;-68
2023/01/08 06:03:21;;;;;;;43.80;19.60;;;;;;;3.61;100.00;99423.71;105756;1253;61155;-69
2023/01/08 06:06:10;;;;;;;43.50;19.00;;;;;;;3.62;100.00;99420.68;105807;1253;61222;-65
2023/01/08 06:08:59;;;;;;;42.70;17.20;;;;;;;3.64;100.00;99426.91;106058;1252;70798;-67
2023/01/08 06:11:48;;;;;;;51.00;21.00;;;;;;;3.66;100.00;99420.41;105859;1255;69424;-66
2023/01/08 06:14:36;;;;;;;48.80;21.70;;;;;;;3.69;100.00;99411.46;105944;1256;73188;-65
2023/01/08 06:17:24;;;;;;;47.70;21.10;;;;;;;3.71;100.00;99403.85;105141;1256;1003374;-65
2023/01/08 06:20:12;;;;;;;45.50;19.00;;;;;;;3.73;100.00;99391.64;105983;1255;61037;-65
2023/01/08 06:23:01;;;;;;;43.50;20.00;;;;;;;3.74;100.00;99387.67;105962;1256;73565;-65
2023/01/08 06:25:55;;;;;;;48.70;21.10;;;;;;;3.76;100.00;99397.56;106295;1254;67089;-66
2023/01/08 06:28:43;;;;;;;46.60;20.40;;;;;;;3.79;100.00;99395.80;106094;1253;73063;-66
2023/01/08 06:31:32;;;;;;;48.40;22.00;;;;;;;3.81;100.00;99391.14;109525;1253;60992;-64
2023/01/08 06:34:20;;;;;;;45.60;20.30;;;;;;;3.83;100.00;99388.23;109535;1253;61102;-66
2023/01/08 06:37:08;;;;;;;52.50;23.80;;;;;;;3.84;100.00;99393.37;109535;1252;71891;-65
2023/01/08 06:39:56;;;;;;;45.70;22.10;;;;;;;3.86;100.00;99391.35;109461;1253;68847;-67
2023/01/08 06:42:45;;;;;;;42.70;19.60;;;;;;;3.86;100.00;99395.20;109435;1253;73387;-66
2023/01/08 06:45:32;;;;;;;40.30;19.60;;;;;;;3.87;100.00;99391.10;109474;1253;59375;-65
2023/01/08 06:48:20;;;;;;;44.10;21.40;;;;;;;3.90;100.00;99387.09;109420;1253;59181;-66
2023/01/08 06:51:08;;;;;;;44.80;21.70;;;;;;;3.91;100.00;99398.57;109442;1253;71085;-69
2023/01/08 06:53:57;;;;;;;50.20;23.90;;;;;;;3.96;100.00;99392.20;109473;1253;67919;-67
2023/01/08 06:56:48;;;;;;;49.50;23.00;;;;;;;3.98;100.00;99402.20;109380;1253;73512;-66
2023/01/08 06:59:41;;;;;;;47.70;21.50;;;;;;;3.99;100.00;99400.77;109423;1253;59291;-66
2023/01/08 07:02:28;;;;;;;51.20;22.70;;;;;;;3.99;100.00;99401.30;109447;1253;58804;-66
2023/01/08 07:05:17;;;;;;;55.00;23.60;;;;;;;3.95;100.00;99402.27;109460;1253;68858;-65
2023/01/08 07:08:09;;;;;;;51.90;22.50;;;;;;;3.92;100.00;99405.20;109475;1252;68954;-65
2023/01/08 07:11:02;;;;;;;52.90;23.30;;;;;;;3.89;100.00;99396.11;109477;1252;72722;-65
2023/01/08 07:13:51;;;;;;;54.20;23.60;;;;;;;3.88;100.00;99395.41;109474;1253;58157;-66
2023/01/08 07:16:39;;;;;;;52.20;23.90;;;;;;;3.89;100.00;99401.35;109411;1253;61121;-66
2023/01/08 07:19:26;;;;;;;48.60;22.20;;;;;;;3.87;100.00;99400.05;109421;1253;71105;-65
2023/01/08 07:22:14;;;;;;;50.60;23.40;;;;;;;3.87;100.00;99397.60;109403;1253;67685;-65
2023/01/08 07:25:03;;;;;;;45.10;21.10;;;;;;;3.85;100.00;99397.58;109561;1252;71346;-66
2023/01/08 07:27:51;;;;;;;53.40;24.40;;;;;;;3.82;100.00;99398.24;109483;1252;57669;-66
2023/01/08 07:30:39;;;;;;;50.70;23.60;;;;;;;3.83;100.00;99395.02;109514;1252;59322;-66
2023/01/08 07:33:27;;;;;;;51.30;24.20;;;;;;;3.81;100.00;99397.09;109487;1252;72139;-68
2023/01/08 07:36:21;;;;;;;46.70;23.10;;;;;;;3.81;100.00;99396.91;109486;1253;67862;-67
2023/01/08 07:39:09;;;;;;;50.50;23.60;;;;;;;3.82;100.00;99393.71;109541;1252;73482;-66
2023/01/08 07:41:57;;;;;;;49.60;23.30;;;;;;;3.82;100.00;99391.58;109518;1252;57983;-66
2023/01/08 07:44:45;;;;;;;46.30;22.30;;;;;;;3.83;100.00;99394.36;109503;1252;60379;-67
2023/01/08 07:47:33;;;;;;;44.50;21.60;;;;;;;3.81;100.00;99395.16;109518;1252;72131;-65
2023/01/08 07:50:21;;;;;;;39.50;19.90;;;;;;;3.79;100.00;99395.66;109513;1252;67838;-67
2023/01/08 07:53:12;;;;;;;43.90;22.00;;;;;;;3.79;100.00;99391.98;109483;1253;72559;-67
2023/01/08 07:56:05;;;;;;;40.70;18.40;;;;;;;3.82;100.00;99391.63;109481;1252;59573;-67
2023/01/08 07:58:53;;;;;;;44.20;21.90;;;;;;;3.79;100.00;99398.29;109503;1252;60103;-66
2023/01/08 08:01:41;;;;;;;48.40;23.20;;;;;;;3.79;100.00;99397.90;109554;1253;72194;-66
2023/01/08 08:04:29;;;;;;;47.90;22.40;;;;;;;3.80;100.00;99394.55;109527;1252;67725;-66
2023/01/08 08:07:17;;;;;;;47.90;22.80;;;;;;;3.77;100.00;99391.02;109473;1253;70605;-65
2023/01/08 08:10:06;;;;;;;47.80;22.90;;;;;;;3.79;100.00;99379.88;109498;1252;60365;-66
2023/01/08 08:12:54;;;;;;;45.30;22.80;;;;;;;3.75;100.00;99384.27;109573;1252;60035;-66
2023/01/08 08:15:42;;;;;;;49.20;24.00;;;;;;;3.72;100.00;99392.70;109440;1253;71101;-65
2023/01/08 08:18:30;;;;;;;46.10;22.40;;;;;;;3.74;100.00;99383.98;109408;1253;69240;-66
2023/01/08 08:21:18;;;;;;;48.80;24.70;;;;;;;3.73;100.00;99383.90;107121;1253;1002776;-66
2023/01/08 08:24:06;;;;;;;52.30;25.30;;;;;;;3.69;100.00;99376.40;109403;1253;59236;-68
2023/01/08 08:26:54;;;;;;;52.00;24.60;;;;;;;3.68;100.00;99361.36;109462;1253;61068;-67
2023/01/08 08:29:43;;;;;;;45.30;23.30;;;;;;;3.70;100.00;99354.41;109354;1253;71594;-64
2023/01/08 08:32:31;;;;;;;53.40;24.90;;;;;;;3.70;100.00;99354.95;109404;1255;67882;-67
2023/01/08 08:35:21;;;;;;;49.90;24.00;;;;;;;3.71;100.00;99351.53;109352;1253;72691;-66
2023/01/08 08:38:13;;;;;;;49.40;24.70;;;;;;;3.70;100.00;99351.23;109277;1253;56834;-67
2023/01/08 08:41:01;;;;;;;44.20;22.60;;;;;;;3.72;100.00;99356.42;109381;1253;60350;-66
2023/01/08 08:43:50;;;;;;;48.50;23.60;;;;;;;3.70;100.00;99358.27;109380;1253;73398;-67
2023/01/08 08:46:37;;;;;;;50.10;24.00;;;;;;;3.72;100.00;99357.99;109421;1253;68154;-65
2023/01/08 08:49:26;;;;;;;46.30;22.00;;;;;;;3.73;100.00;99353.38;109435;1253;72768;-68
2023/01/08 08:52:14;;;;;;;46.90;23.90;;;;;;;3.70;100.00;99358.98;109405;1253;58025;-67
2023/01/08 08:55:02;;;;;;;52.40;24.70;;;;;;;3.69;100.00;99363.94;109416;1253;61083;-67
2023/01/08 08:57:50;;;;;;;48.40;23.40;;;;;;;3.70;100.00;99353.39;109428;1253;72447;-66
2023/01/08 09:00:41;;;;;;;45.50;21.30;;;;;;;3.70;100.00;99352.83;109454;1253;67997;-65
2023/01/08 09:03:32;;;;;;;45.30;22.40;;;;;;;3.71;100.00;99344.32;109416;1253;72407;-66
2023/01/08 09:06:20;;;;;;;50.30;26.00;;;;;;;3.71;100.00;99343.51;109430;1253;58478;-66
2023/01/08 09:09:08;;;;;;;37.40;17.30;;;;;;;3.71;100.00;99349.60;109443;1253;60053;-66
2023/01/08 09:11:56;;;;;;;50.00;24.10;;;;;;;3.66;100.00;99346.76;109431;1253;70964;-68
2023/01/08 09:14:49;;;;;;;44.50;21.90;;;;;;;3.68;100.00;99348.40;109510;1253;67643;-65
2023/01/08 09:17:37;;;;;;;42.40;20.70;;;;;;;3.66;100.00;99340.80;109532;1252;72484;-66
2023/01/08 09:20:27;;;;;;;48.90;22.90;;;;;;;3.69;100.00;99335.38;109476;1252;60329;-66
2023/01/08 09:23:14;;;;;;;48.40;24.20;;;;;;;3.68;100.00;99336.84;109420;1253;60056;-66
2023/01/08 09:26:04;;;;;;;42.90;20.90;;;;;;;3.67;100.00;99327.74;109501;1252;73353;-65
2023/01/08 09:28:51;;;;;;;47.80;23.70;;;;;;;3.66;100.00;99328.71;109584;1252;68557;-68
2023/01/08 09:31:39;;;;;;;46.10;22.30;;;;;;;3.63;100.00;99323.10;109462;1252;72778;-68
2023/01/08 09:34:28;;;;;;;49.30;23.70;;;;;;;3.63;100.00;99319.04;109532;1252;58327;-66
2023/01/08 09:37:16;;;;;;;49.30;24.30;;;;;;;3.62;100.00;99307.68;109517;1252;61260;-66
2023/01/08 09:40:05;;;;;;;44.30;23.10;;;;;;;3.62;100.00;99311.73;109485;1252;72843;-67
2023/01/08 09:42:59;;;;;;;45.30;22.00;;;;;;;3.62;100.00;99305.64;109524;1252;66522;-66
2023/01/08 09:45:55;;;;;;;42.80;21.20;;;;;;;3.59;100.00;99305.80;109509;1253;73494;-66
2023/01/08 09:48:43;;;;;;;43.20;21.80;;;;;;;3.59;100.00;99300.17;109484;1253;59411;-67
2023/01/08 09:51:37;;;;;;;46.10;22.30;;;;;;;3.59;100.00;99297.88;109509;1252;59995;-67
2023/01/08 09:54:26;;;;;;;47.30;21.60;;;;;;;3.58;100.00;99297.29;109502;1253;72086;-65
2023/01/08 09:57:18;;;;;;;41.10;19.90;;;;;;;3.60;100.00;99289.75;109528;1252;67621;-70
2023/01/08 10:00:27;;;;;;;48.30;24.00;;;;;;;3.60;100.00;99296.06;109499;1252;72361;-65
2023/01/08 10:03:15;;;;;;;50.10;23.50;;;;;;;3.57;100.00;99286.08;109512;1252;58009;-66
2023/01/08 10:06:12;;;;;;;45.40;20.90;;;;;;;3.62;100.00;99286.68;109537;1252;61053;-67
2023/01/08 10:09:00;;;;;;;41.50;20.40;;;;;;;3.57;100.00;99286.05;109552;1252;72346;-66
2023/01/08 10:11:49;;;;;;;42.40;21.50;;;;;;;3.56;100.00;99277.55;109597;1252;67997;-66
2023/01/08 10:14:46;;;;;;;46.70;22.70;;;;;;;3.54;100.00;99270.85;109494;1252;73706;-68
2023/01/08 10:17:50;;;;;;;41.50;19.30;;;;;;;3.56;100.00;99270.50;109408;1253;58293;-67
2023/01/08 10:20:38;;;;;;;48.70;23.30;;;;;;;3.53;100.00;99271.92;109240;1253;61396;-70
2023/01/08 10:23:26;;;;;;;39.60;17.90;;;;;;;3.55;100.00;99261.09;109475;1253;72425;-66
2023/01/08 10:26:35;;;;;;;46.10;22.00;;;;;;;3.53;100.00;99268.21;109471;1253;69009;-66
2023/01/08 10:29:23;;;;;;;49.30;23.00;;;;;;;3.53;100.00;99264.73;109375;1253;72654;-66
2023/01/08 10:32:19;;;;;;;48.50;21.70;;;;;;;3.54;100.00;99253.09;109370;1253;58593;-67
2023/01/08 10:35:16;;;;;;;44.70;21.10;;;;;;;3.55;100.00;99242.52;109391;1253;60965;-66
2023/01/08 10:38:04;;;;;;;48.60;23.00;;;;;;;3.53;100.00;99247.42;109484;1253;71214;-66
2023/01/08 10:40:54;;;;;;;43.10;20.00;;;;;;;3.51;100.00;99239.60;109394;1253;68657;-69
2023/01/08 10:44:03;;;;;;;51.30;23.50;;;;;;;3.50;100.00;99235.45;109358;1253;73927;-66
2023/01/08 10:46:57;;;;;;;46.20;21.90;;;;;;;3.49;100.00;99228.85;107046;1253;1002389;-66
2023/01/08 10:49:46;;;;;;;43.00;19.40;;;;;;;3.48;100.00;99227.72;109381;1253;60257;-66
2023/01/08 10:52:35;;;;;;;48.20;20.90;;;;;;;3.46;100.00;99235.21;109463;1253;72194;-66
2023/01/08 10:55:25;;;;;;;45.10;21.40;;;;;;;3.43;100.00;99230.66;109433;1253;66600;-67
2023/01/08 10:58:14;;;;;;;38.60;16.80;;;;;;;3.43;100.00;99227.15;109405;1253;71424;-67
2023/01/08 11:01:19;;;;;;;44.00;21.20;;;;;;;3.40;100.00;99219.25;109386;1253;59538;-67
2023/01/08 11:04:25;;;;;;;48.70;21.30;;;;;;;3.42;100.00;99218.92;109438;1253;61217;-68
2023/01/08 11:07:21;;;;;;;46.00;19.60;;;;;;;3.45;100.00;99211.06;109341;1253;71210;-68
2023/01/08 11:10:24;;;;;;;45.80;21.10;;;;;;;3.44;100.00;99220.59;109482;1253;67806;-68
2023/01/08 11:13:18;;;;;;;46.10;21.30;;;;;;;3.41;100.00;99208.13;109441;1253;71745;-66
2023/01/08 11:16:09;;;;;;;46.00;20.80;;;;;;;3.44;100.00;99204.83;109504;1252;59372;-67
2023/01/08 11:18:57;;;;;;;38.70;17.00;;;;;;;3.46;100.00;99204.83;109468;1252;59562;-66
2023/01/08 11:22:16;;;;;;;41.30;19.30;;;;;;;3.44;100.00;99212.53;109571;1253;73397;-66
2023/01/08 11:25:12;;;;;;;39.20;17.00;;;;;;;3.47;100.00;99201.08;108724;1252;1003018;-65
2023/01/08 11:28:03;;;;;;;43.30;19.80;;;;;;;3.47;100.00;99197.25;109481;1253;72884;-66
2023/01/08 11:31:08;;;;;;;43.80;20.30;;;;;;;3.47;100.00;99190.58;109400;1253;59255;-67
2023/01/08 11:34:12;;;;;;;41.00;17.90;;;;;;;3.48;100.00;99199.48;109482;1253;60142;-69
2023/01/08 11:37:22;;;;;;;42.20;18.60;;;;;;;3.47;100.00;99192.20;109461;1252;70718;-67
2023/01/08 11:40:17;;;;;;;43.90;18.40;;;;;;;3.47;100.00;99182.50;109496;1253;66430;-67
2023/01/08 11:43:49;;;;;;;45.60;20.40;;;;;;;3.46;100.00;99183.98;109445;1253;71184;-67
2023/01/08 11:47:00;;;;;;;44.60;21.30;;;;;;;3.48;100.00;99179.12;109425;1252;59794;-70
2023/01/08 11:50:33;;;;;;;45.70;18.90;;;;;;;3.48;100.00;99173.14;109475;1253;59945;-67
2023/01/08 11:53:36;;;;;;;40.40;17.90;;;;;;;3.47;100.00;99169.39;109406;1252;70706;-66
2023/01/08 11:56:48;;;;;;;43.50;19.80;;;;;;;3.46;100.00;99164.17;109499;1252;68580;-67
2023/01/08 12:00:08;;;;;;;45.20;20.10;;;;;;;3.45;100.00;99162.80;109462;1253;72625;-68
2023/01/08 12:03:16;;;;;;;44.70;18.30;;;;;;;3.46;100.00;99152.94;109466;1252;58408;-66
2023/01/08 12:06:26;;;;;;;35.90;16.50;;;;;;;3.45;100.00;99148.77;109486;1253;60708;-69
2023/01/08 12:09:21;;;;;;;45.60;20.10;;;;;;;3.45;100.00;99135.64;109476;1253;71912;-68
2023/01/08 12:12:51;;;;;;;48.10;20.60;;;;;;;3.47;100.00;99133.58;109531;1252;68072;-65
2023/01/08 12:16:09;;;;;;;43.20;20.20;;;;;;;3.50;100.00;99124.09;109449;1252;73772;-67
2023/01/08 12:19:04;;;;;;;44.30;18.60;;;;;;;3.54;100.00;99116.61;109385;1253;59758;-67
2023/01/08 12:21:58;;;;;;;45.70;17.50;;;;;;;3.57;100.00;99113.31;109344;1253;60026;-66
2023/01/08 12:25:23;;;;;;;47.20;21.20;;;;;;;3.59;100.00;99116.67;109476;1253;72283;-65
2023/01/08 12:28:58;;;;;;;46.30;21.10;;;;;;;3.62;100.00;99116.36;109407;1253;66835;-67
2023/01/08 12:32:26;;;;;;;39.20;18.60;;;;;;;3.64;100.00;99108.29;108871;1262;72695;-67
2023/01/08 12:35:22;;;;;;;42.80;17.40;;;;;;;3.62;100.00;99106.83;108765;1260;59569;-66
2023/01/08 12:38:23;;;;;;;34.90;16.20;;;;;;;3.61;100.00;99110.42;108870;1260;59999;-67
2023/01/08 12:41:15;;;;;;;46.20;20.40;;;;;;;3.59;100.00;99108.59;108884;1260;71254;-66
2023/01/08 12:44:10;;;;;;;46.00;19.80;;;;;;;3.58;100.00;99106.57;108861;1260;66372;-64
2023/01/08 12:47:03;;;;;;;43.40;19.70;;;;;;;3.56;100.00;99100.39;108757;1260;71400;-66
2023/01/08 12:50:20;;;;;;;44.20;18.80;;;;;;;3.51;100.00;99095.67;108860;1260;58194;-65
2023/01/08 12:53:35;;;;;;;46.20;21.90;;;;;;;3.53;100.00;99090.39;108879;1260;59972;-67
2023/01/08 12:57:01;;;;;;;45.70;20.80;;;;;;;3.54;100.00;99083.34;108825;1261;73287;-66
2023/01/08 13:00:18;;;;;;;45.10;19.00;;;;;;;3.52;100.00;99076.98;108966;1260;66392;-67
2023/01/08 13:03:21;;;;;;;45.80;19.60;;;;;;;3.51;100.00;99063.19;108923;1260;72330;-66
2023/01/08 13:06:18;;;;;;;44.20;20.00;;;;;;;3.52;100.00;99059.42;108659;1260;60398;-68